CES3 weather

Edmonton / St. Albert (Delta Helicopters) Heliport
Edmonton, Alberta, Canada

Public forecast

Using degrees Celsius for public forecast. Weather courtesy of forecast.io.

Closest aviation weather report (METAR) to Edmonton / St. Albert (Delta Helicopters) Heliport

Closest report is Edmonton / Villeneuve Airport, 6.0 nm (11.2 km) W. Retrieved 2020/04/09 14:00 UTC (4 minutes ago):

CZVL 091400Z AUTO 17011KT 9SM BKN075 BKN089 BKN240 M01/M06 A2999 RMK SLP187

Closest aviation forecast (TAF) to Edmonton / St. Albert (Delta Helicopters) Heliport

Closest forecast is Edmonton / Villeneuve Airport, 6.0 nm (11.2 km) W. Retrieved 2020/04/09 12:00 UTC (2 hours ago):

TAF CZVL 091153Z 0912/0924 17012KT P6SM BKN060 OVC110 BECMG 0915/0917 20010KT BECMG 0918/0920 22008KT FM092200 19006KT P6SM BKN060 RMK FCST BASED ON AUTO OBS NXT FCST BY 091800Z